Terminal Aerodrome Forecast
Issued by NWS

Home | Current Version | Previous Version | Text Only | Print | Product List | Glossary On
Versions: 1 2 3 4 5 6 7 8 9 10 11 12 13 14 15 16 17 18
000
FTUS41 KBOX 162115 AAA
TAFFMH
TAF AMD
KFMH 162115Z 1621/1718 27012KT P6SM BKN070
     FM162300 29012KT P6SM VCSH BKN045
     FM170100 29010KT P6SM SCT045
     FM170800 32006KT P6SM SKC
     FM171500 33010KT P6SM FEW200=

USA.gov is the U.S. government's official web portal to all federal, state and local government web resources and services.